sensor_id;sensor_type;location;lat;lon;timestamp;pressure;altitude;pressure_sealevel;temperature;humidity
65800;BME280;52544;48.116;11.660;2023-02-04T00:01:16;96507.72;;;4.40;100.00
65800;BME280;52544;48.116;11.660;2023-02-04T00:03:41;96510.69;;;4.33;100.00
65800;BME280;52544;48.116;11.660;2023-02-04T00:06:07;96506.47;;;4.30;100.00
65800;BME280;52544;48.116;11.660;2023-02-04T00:08:32;96511.53;;;4.33;100.00
65800;BME280;52544;48.116;11.660;2023-02-04T00:10:57;96515.66;;;4.39;100.00
65800;BME280;52544;48.116;11.660;2023-02-04T00:13:23;96520.31;;;4.32;100.00
65800;BME280;52544;48.116;11.660;2023-02-04T00:15:48;96515.16;;;4.31;100.00
65800;BME280;52544;48.116;11.660;2023-02-04T00:18:14;96524.59;;;4.35;100.00
65800;BME280;52544;48.116;11.660;2023-02-04T00:20:39;96524.72;;;4.32;100.00
65800;BME280;52544;48.116;11.660;2023-02-04T00:23:04;96523.66;;;4.36;100.00
65800;BME280;52544;48.116;11.660;2023-02-04T00:25:30;96537.69;;;4.35;100.00
65800;BME280;52544;48.116;11.660;2023-02-04T00:27:55;96522.81;;;4.35;100.00
65800;BME280;52544;48.116;11.660;2023-02-04T00:30:21;96528.81;;;4.37;100.00
65800;BME280;52544;48.116;11.660;2023-02-04T00:32:46;96527.97;;;4.37;100.00
65800;BME280;52544;48.116;11.660;2023-02-04T00:35:12;96534.06;;;4.37;100.00
65800;BME280;52544;48.116;11.660;2023-02-04T00:37:37;96542.00;;;4.36;100.00
65800;BME280;52544;48.116;11.660;2023-02-04T00:40:03;96545.25;;;4.41;100.00
65800;BME280;52544;48.116;11.660;2023-02-04T00:42:28;96534.22;;;4.34;100.00
65800;BME280;52544;48.116;11.660;2023-02-04T00:44:54;96545.69;;;4.32;100.00
65800;BME280;52544;48.116;11.660;2023-02-04T00:47:19;96549.88;;;4.36;100.00
65800;BME280;52544;48.116;11.660;2023-02-04T00:49:45;96547.03;;;4.40;100.00
65800;BME280;52544;48.116;11.660;2023-02-04T00:52:10;96541.75;;;4.42;100.00
65800;BME280;52544;48.116;11.660;2023-02-04T00:54:35;96546.28;;;4.38;100.00
65800;BME280;52544;48.116;11.660;2023-02-04T00:57:01;96551.34;;;4.41;100.00
65800;BME280;52544;48.116;11.660;2023-02-04T00:59:26;96560.00;;;4.43;100.00
65800;BME280;52544;48.116;11.660;2023-02-04T01:01:52;96563.78;;;4.38;100.00
65800;BME280;52544;48.116;11.660;2023-02-04T01:04:17;96571.91;;;4.32;100.00
65800;BME280;52544;48.116;11.660;2023-02-04T01:06:43;96564.97;;;4.31;100.00
65800;BME280;52544;48.116;11.660;2023-02-04T01:09:08;96570.06;;;4.34;100.00
65800;BME280;52544;48.116;11.660;2023-02-04T01:11:34;96562.13;;;4.35;100.00
65800;BME280;52544;48.116;11.660;2023-02-04T01:14:00;96573.47;;;4.36;100.00
65800;BME280;52544;48.116;11.660;2023-02-04T01:16:26;96580.94;;;4.24;100.00
65800;BME280;52544;48.116;11.660;2023-02-04T01:18:51;96582.66;;;4.25;100.00
65800;BME280;52544;48.116;11.660;2023-02-04T01:21:23;96577.69;;;4.19;100.00
65800;BME280;52544;48.116;11.660;2023-02-04T01:23:49;96567.00;;;4.24;100.00
65800;BME280;52544;48.116;11.660;2023-02-04T01:26:16;96575.84;;;4.21;100.00
65800;BME280;52544;48.116;11.660;2023-02-04T01:28:41;96580.25;;;4.21;100.00
65800;BME280;52544;48.116;11.660;2023-02-04T01:31:06;96578.59;;;4.18;100.00
65800;BME280;52544;48.116;11.660;2023-02-04T01:33:32;96573.38;;;4.18;100.00
65800;BME280;52544;48.116;11.660;2023-02-04T01:35:57;96577.13;;;4.32;100.00
65800;BME280;52544;48.116;11.660;2023-02-04T01:38:23;96582.38;;;4.32;100.00
65800;BME280;52544;48.116;11.660;2023-02-04T01:40:48;96573.59;;;4.33;100.00
65800;BME280;52544;48.116;11.660;2023-02-04T01:43:14;96582.47;;;4.30;100.00
65800;BME280;52544;48.116;11.660;2023-02-04T01:45:42;96594.44;;;4.36;100.00
65800;BME280;52544;48.116;11.660;2023-02-04T01:48:07;96607.19;;;4.43;100.00
65800;BME280;52544;48.116;11.660;2023-02-04T01:50:33;96605.50;;;4.42;100.00
65800;BME280;52544;48.116;11.660;2023-02-04T01:52:59;96595.56;;;4.49;100.00
65800;BME280;52544;48.116;11.660;2023-02-04T01:55:27;96597.44;;;4.47;100.00
65800;BME280;52544;48.116;11.660;2023-02-04T01:57:53;96598.28;;;4.47;100.00
65800;BME280;52544;48.116;11.660;2023-02-04T02:00:27;96608.63;;;4.50;100.00
65800;BME280;52544;48.116;11.660;2023-02-04T02:02:53;96610.31;;;4.51;100.00
65800;BME280;52544;48.116;11.660;2023-02-04T02:05:22;96611.31;;;4.49;100.00
65800;BME280;52544;48.116;11.660;2023-02-04T02:07:50;96603.94;;;4.57;100.00
65800;BME280;52544;48.116;11.660;2023-02-04T02:10:17;96608.75;;;4.66;100.00
65800;BME280;52544;48.116;11.660;2023-02-04T02:12:44;96607.28;;;4.61;100.00
65800;BME280;52544;48.116;11.660;2023-02-04T02:15:11;96614.09;;;4.65;100.00
65800;BME280;52544;48.116;11.660;2023-02-04T02:17:37;96624.50;;;4.66;100.00
65800;BME280;52544;48.116;11.660;2023-02-04T02:20:06;96614.84;;;4.67;100.00
65800;BME280;52544;48.116;11.660;2023-02-04T02:22:38;96624.66;;;4.63;100.00
65800;BME280;52544;48.116;11.660;2023-02-04T02:25:12;96623.59;;;4.67;100.00
65800;BME280;52544;48.116;11.660;2023-02-04T02:27:38;96625.28;;;4.68;100.00
65800;BME280;52544;48.116;11.660;2023-02-04T02:30:05;96629.03;;;4.63;100.00
65800;BME280;52544;48.116;11.660;2023-02-04T02:32:36;96628.13;;;4.64;100.00
65800;BME280;52544;48.116;11.660;2023-02-04T02:35:02;96641.16;;;4.65;100.00
65800;BME280;52544;48.116;11.660;2023-02-04T02:37:28;96635.84;;;4.67;100.00
65800;BME280;52544;48.116;11.660;2023-02-04T02:39:54;96637.59;;;4.66;100.00
65800;BME280;52544;48.116;11.660;2023-02-04T02:42:20;96640.53;;;4.60;100.00
65800;BME280;52544;48.116;11.660;2023-02-04T02:44:47;96634.84;;;4.69;100.00
65800;BME280;52544;48.116;11.660;2023-02-04T02:47:14;96640.38;;;4.63;100.00
65800;BME280;52544;48.116;11.660;2023-02-04T02:49:41;96634.97;;;4.66;100.00
65800;BME280;52544;48.116;11.660;2023-02-04T02:52:16;96647.19;;;4.67;100.00
65800;BME280;52544;48.116;11.660;2023-02-04T02:54:42;96645.63;;;4.63;100.00
65800;BME280;52544;48.116;11.660;2023-02-04T02:57:16;96651.97;;;4.58;100.00
65800;BME280;52544;48.116;11.660;2023-02-04T02:59:43;96662.03;;;4.48;100.00
65800;BME280;52544;48.116;11.660;2023-02-04T03:02:10;96656.00;;;4.46;100.00
65800;BME280;52544;48.116;11.660;2023-02-04T03:04:42;96660.19;;;4.50;100.00
65800;BME280;52544;48.116;11.660;2023-02-04T03:07:09;96657.84;;;4.44;100.00
65800;BME280;52544;48.116;11.660;2023-02-04T03:09:35;96657.38;;;4.55;100.00
65800;BME280;52544;48.116;11.660;2023-02-04T03:12:01;96659.41;;;4.48;100.00
65800;BME280;52544;48.116;11.660;2023-02-04T03:14:27;96657.50;;;4.51;100.00
65800;BME280;52544;48.116;11.660;2023-02-04T03:16:53;96652.06;;;4.56;100.00
65800;BME280;52544;48.116;11.660;2023-02-04T03:19:20;96660.19;;;4.50;100.00
65800;BME280;52544;48.116;11.660;2023-02-04T03:21:46;96662.31;;;4.42;100.00
65800;BME280;52544;48.116;11.660;2023-02-04T03:24:12;96662.16;;;4.45;100.00
65800;BME280;52544;48.116;11.660;2023-02-04T03:26:38;96668.84;;;4.52;100.00
65800;BME280;52544;48.116;11.660;2023-02-04T03:29:06;96666.56;;;4.44;100.00
65800;BME280;52544;48.116;11.660;2023-02-04T03:31:32;96665.19;;;4.36;100.00
65800;BME280;52544;48.116;11.660;2023-02-04T03:33:57;96672.94;;;4.39;100.00
65800;BME280;52544;48.116;11.660;2023-02-04T03:36:23;96679.75;;;4.43;100.00
65800;BME280;52544;48.116;11.660;2023-02-04T03:38:48;96688.38;;;4.45;100.00
65800;BME280;52544;48.116;11.660;2023-02-04T03:41:17;96698.84;;;4.45;100.00
65800;BME280;52544;48.116;11.660;2023-02-04T03:43:43;96699.88;;;4.42;100.00
65800;BME280;52544;48.116;11.660;2023-02-04T03:46:08;96706.72;;;4.45;100.00
65800;BME280;52544;48.116;11.660;2023-02-04T03:48:33;96706.47;;;4.31;100.00
65800;BME280;52544;48.116;11.660;2023-02-04T03:50:59;96699.78;;;4.44;100.00
65800;BME280;52544;48.116;11.660;2023-02-04T03:53:24;96711.91;;;4.46;100.00
65800;BME280;52544;48.116;11.660;2023-02-04T03:55:49;96726.78;;;4.46;100.00
65800;BME280;52544;48.116;11.660;2023-02-04T03:58:15;96732.88;;;4.46;100.00
65800;BME280;52544;48.116;11.660;2023-02-04T04:00:40;96737.13;;;4.49;100.00
65800;BME280;52544;48.116;11.660;2023-02-04T04:03:06;96733.75;;;4.47;100.00
65800;BME280;52544;48.116;11.660;2023-02-04T04:05:31;96739.88;;;4.46;100.00
65800;BME280;52544;48.116;11.660;2023-02-04T04:07:57;96742.31;;;4.50;100.00
65800;BME280;52544;48.116;11.660;2023-02-04T04:10:23;96739.84;;;4.47;100.00
65800;BME280;52544;48.116;11.660;2023-02-04T04:12:49;96744.94;;;4.50;100.00
65800;BME280;52544;48.116;11.660;2023-02-04T04:15:14;96745.28;;;4.43;100.00
65800;BME280;52544;48.116;11.660;2023-02-04T04:17:40;96745.66;;;4.34;100.00
65800;BME280;52544;48.116;11.660;2023-02-04T04:20:06;96753.66;;;4.31;100.00
65800;BME280;52544;48.116;11.660;2023-02-04T04:22:31;96760.00;;;4.25;100.00
65800;BME280;52544;48.116;11.660;2023-02-04T04:24:57;96762.56;;;4.26;100.00
65800;BME280;52544;48.116;11.660;2023-02-04T04:27:23;96763.69;;;4.21;100.00
65800;BME280;52544;48.116;11.660;2023-02-04T04:29:48;96778.50;;;4.20;100.00
65800;BME280;52544;48.116;11.660;2023-02-04T04:32:14;96778.72;;;4.16;100.00
65800;BME280;52544;48.116;11.660;2023-02-04T04:34:39;96767.00;;;4.04;100.00
65800;BME280;52544;48.116;11.660;2023-02-04T04:37:04;96776.34;;;4.10;100.00
65800;BME280;52544;48.116;11.660;2023-02-04T04:39:30;96787.78;;;4.07;100.00
65800;BME280;52544;48.116;11.660;2023-02-04T04:41:55;96777.59;;;4.01;100.00
65800;BME280;52544;48.116;11.660;2023-02-04T04:44:21;96783.75;;;4.00;100.00
65800;BME280;52544;48.116;11.660;2023-02-04T04:46:46;96795.47;;;3.90;100.00
65800;BME280;52544;48.116;11.660;2023-02-04T04:49:12;96797.06;;;3.94;100.00
65800;BME280;52544;48.116;11.660;2023-02-04T04:51:37;96802.69;;;3.85;100.00
65800;BME280;52544;48.116;11.660;2023-02-04T04:54:02;96803.16;;;3.72;100.00
65800;BME280;52544;48.116;11.660;2023-02-04T04:56:28;96812.38;;;3.83;100.00
65800;BME280;52544;48.116;11.660;2023-02-04T04:58:53;96815.88;;;3.82;100.00
65800;BME280;52544;48.116;11.660;2023-02-04T05:01:19;96805.53;;;3.79;100.00
65800;BME280;52544;48.116;11.660;2023-02-04T05:03:45;96824.09;;;3.72;100.00
65800;BME280;52544;48.116;11.660;2023-02-04T05:06:11;96817.16;;;3.71;100.00
65800;BME280;52544;48.116;11.660;2023-02-04T05:08:37;96818.94;;;3.71;100.00
65800;BME280;52544;48.116;11.660;2023-02-04T05:11:02;96821.91;;;3.62;100.00
65800;BME280;52544;48.116;11.660;2023-02-04T05:13:28;96824.75;;;3.56;100.00
65800;BME280;52544;48.116;11.660;2023-02-04T05:15:53;96818.75;;;3.52;100.00
65800;BME280;52544;48.116;11.660;2023-02-04T05:18:19;96811.47;;;3.60;100.00
65800;BME280;52544;48.116;11.660;2023-02-04T05:20:45;96823.22;;;3.50;100.00
65800;BME280;52544;48.116;11.660;2023-02-04T05:23:10;96836.47;;;3.45;100.00
65800;BME280;52544;48.116;11.660;2023-02-04T05:25:35;96840.97;;;3.42;100.00
65800;BME280;52544;48.116;11.660;2023-02-04T05:28:01;96846.22;;;3.42;100.00
65800;BME280;52544;48.116;11.660;2023-02-04T05:30:26;96854.28;;;3.36;100.00
65800;BME280;52544;48.116;11.660;2023-02-04T05:32:51;96855.88;;;3.40;100.00
65800;BME280;52544;48.116;11.660;2023-02-04T05:35:17;96855.00;;;3.39;100.00
65800;BME280;52544;48.116;11.660;2023-02-04T05:37:42;96860.22;;;3.41;100.00
65800;BME280;52544;48.116;11.660;2023-02-04T05:40:08;96858.34;;;3.44;100.00
65800;BME280;52544;48.116;11.660;2023-02-04T05:42:33;96855.72;;;3.44;100.00
65800;BME280;52544;48.116;11.660;2023-02-04T05:44:59;96863.22;;;3.54;100.00
65800;BME280;52544;48.116;11.660;2023-02-04T05:47:24;96866.69;;;3.54;100.00
65800;BME280;52544;48.116;11.660;2023-02-04T05:49:50;96872.69;;;3.58;100.00
65800;BME280;52544;48.116;11.660;2023-02-04T05:52:15;96879.97;;;3.49;100.00
65800;BME280;52544;48.116;11.660;2023-02-04T05:54:40;96892.06;;;3.52;100.00
65800;BME280;52544;48.116;11.660;2023-02-04T05:57:06;96896.16;;;3.59;100.00
65800;BME280;52544;48.116;11.660;2023-02-04T05:59:31;96896.06;;;3.62;100.00
65800;BME280;52544;48.116;11.660;2023-02-04T06:01:57;96905.88;;;3.56;100.00
65800;BME280;52544;48.116;11.660;2023-02-04T06:04:22;96915.31;;;3.61;100.00
65800;BME280;52544;48.116;11.660;2023-02-04T06:06:47;96918.47;;;3.69;100.00
65800;BME280;52544;48.116;11.660;2023-02-04T06:09:13;96918.47;;;3.69;100.00
65800;BME280;52544;48.116;11.660;2023-02-04T06:11:38;96924.03;;;3.60;100.00
65800;BME280;52544;48.116;11.660;2023-02-04T06:14:04;96930.28;;;3.58;100.00
65800;BME280;52544;48.116;11.660;2023-02-04T06:16:29;96932.72;;;3.62;100.00
65800;BME280;52544;48.116;11.660;2023-02-04T06:18:55;96932.63;;;3.65;100.00
65800;BME280;52544;48.116;11.660;2023-02-04T06:21:20;96935.66;;;3.76;100.00
65800;BME280;52544;48.116;11.660;2023-02-04T06:23:45;96940.50;;;3.64;100.00
65800;BME280;52544;48.116;11.660;2023-02-04T06:26:11;96943.09;;;3.65;100.00
65800;BME280;52544;48.116;11.660;2023-02-04T06:28:36;96954.91;;;3.75;100.00
65800;BME280;52544;48.116;11.660;2023-02-04T06:31:02;96947.84;;;3.78;100.00
65800;BME280;52544;48.116;11.660;2023-02-04T06:33:27;96962.50;;;3.83;100.00
65800;BME280;52544;48.116;11.660;2023-02-04T06:35:53;96960.94;;;3.78;100.00
65800;BME280;52544;48.116;11.660;2023-02-04T06:38:18;96962.78;;;3.75;100.00
65800;BME280;52544;48.116;11.660;2023-02-04T06:40:44;96965.31;;;3.77;100.00
65800;BME280;52544;48.116;11.660;2023-02-04T06:43:16;96962.84;;;3.74;100.00
65800;BME280;52544;48.116;11.660;2023-02-04T06:45:41;96964.28;;;3.83;100.00
65800;BME280;52544;48.116;11.660;2023-02-04T06:48:07;96965.38;;;3.75;100.00
65800;BME280;52544;48.116;11.660;2023-02-04T06:50:32;96962.72;;;3.77;100.00
65800;BME280;52544;48.116;11.660;2023-02-04T06:52:58;96967.19;;;3.73;100.00
65800;BME280;52544;48.116;11.660;2023-02-04T06:55:23;96961.66;;;3.83;100.00
65800;BME280;52544;48.116;11.660;2023-02-04T06:57:49;96961.50;;;3.86;100.00
65800;BME280;52544;48.116;11.660;2023-02-04T07:00:14;96961.66;;;3.83;100.00
65800;BME280;52544;48.116;11.660;2023-02-04T07:02:40;96959.06;;;3.81;100.00
65800;BME280;52544;48.116;11.660;2023-02-04T07:05:07;96966.00;;;3.82;100.00
65800;BME280;52544;48.116;11.660;2023-02-04T07:07:33;96969.44;;;3.84;100.00
65800;BME280;52544;48.116;11.660;2023-02-04T07:09:58;96975.31;;;3.91;98.86
65800;BME280;52544;48.116;11.660;2023-02-04T07:12:24;96978.72;;;3.93;98.16
65800;BME280;52544;48.116;11.660;2023-02-04T07:14:50;96985.84;;;3.89;99.54
65800;BME280;52544;48.116;11.660;2023-02-04T07:17:15;96990.16;;;3.90;99.20
65800;BME280;52544;48.116;11.660;2023-02-04T07:19:40;96986.47;;;3.96;98.82
65800;BME280;52544;48.116;11.660;2023-02-04T07:22:06;96995.28;;;3.93;98.42
65800;BME280;52544;48.116;11.660;2023-02-04T07:24:31;97000.53;;;3.93;98.70
65800;BME280;52544;48.116;11.660;2023-02-04T07:26:56;97005.94;;;3.89;98.75
65800;BME280;52544;48.116;11.660;2023-02-04T07:29:22;97002.97;;;3.98;97.38
65800;BME280;52544;48.116;11.660;2023-02-04T07:31:47;97009.06;;;3.98;96.79
65800;BME280;52544;48.116;11.660;2023-02-04T07:34:18;97018.09;;;3.91;97.21
65800;BME280;52544;48.116;11.660;2023-02-04T07:36:44;97028.38;;;3.96;96.34
65800;BME280;52544;48.116;11.660;2023-02-04T07:39:09;97037.03;;;3.98;95.24
65800;BME280;52544;48.116;11.660;2023-02-04T07:41:35;97039.56;;;4.01;95.11
65800;BME280;52544;48.116;11.660;2023-02-04T07:44:01;97039.03;;;3.91;95.24
65800;BME280;52544;48.116;11.660;2023-02-04T07:46:26;97038.06;;;3.94;95.51
65800;BME280;52544;48.116;11.660;2023-02-04T07:48:52;97046.81;;;3.93;96.72
65800;BME280;52544;48.116;11.660;2023-02-04T07:51:17;97045.97;;;3.92;96.36
65800;BME280;52544;48.116;11.660;2023-02-04T07:53:43;97051.16;;;3.94;95.96
65800;BME280;52544;48.116;11.660;2023-02-04T07:56:08;97056.66;;;3.86;94.98
65800;BME280;52544;48.116;11.660;2023-02-04T07:58:33;97049.50;;;3.91;95.08
65800;BME280;52544;48.116;11.660;2023-02-04T08:00:59;97058.81;;;4.00;94.26
65800;BME280;52544;48.116;11.660;2023-02-04T08:03:25;97055.38;;;3.98;93.96
65800;BME280;52544;48.116;11.660;2023-02-04T08:05:51;97060.09;;;3.88;94.85
65800;BME280;52544;48.116;11.660;2023-02-04T08:08:17;97059.06;;;3.92;94.56
65800;BME280;52544;48.116;11.660;2023-02-04T08:10:42;97059.75;;;3.97;94.50
65800;BME280;52544;48.116;11.660;2023-02-04T08:13:08;97065.66;;;4.04;93.76
65800;BME280;52544;48.116;11.660;2023-02-04T08:15:33;97054.94;;;4.10;93.55
65800;BME280;52544;48.116;11.660;2023-02-04T08:17:58;97067.06;;;4.13;93.15
65800;BME280;52544;48.116;11.660;2023-02-04T08:20:24;97060.16;;;4.10;92.96
65800;BME280;52544;48.116;11.660;2023-02-04T08:22:49;97071.59;;;4.08;92.88
65800;BME280;52544;48.116;11.660;2023-02-04T08:25:15;97075.88;;;4.10;92.41
65800;BME280;52544;48.116;11.660;2023-02-04T08:27:40;97082.38;;;4.23;91.19
65800;BME280;52544;48.116;11.660;2023-02-04T08:30:07;97092.38;;;4.14;91.66
65800;BME280;52544;48.116;11.660;2023-02-04T08:32:33;97081.03;;;4.13;91.86
65800;BME280;52544;48.116;11.660;2023-02-04T08:34:59;97090.00;;;4.06;93.09
65800;BME280;52544;48.116;11.660;2023-02-04T08:37:25;97096.06;;;4.08;93.05
65800;BME280;52544;48.116;11.660;2023-02-04T08:39:51;97104.38;;;4.19;90.77
65800;BME280;52544;48.116;11.660;2023-02-04T08:42:16;97094.72;;;4.21;91.39
65800;BME280;52544;48.116;11.660;2023-02-04T08:44:42;97094.47;;;4.28;92.44
65800;BME280;52544;48.116;11.660;2023-02-04T08:47:08;97099.63;;;4.31;89.42
65800;BME280;52544;48.116;11.660;2023-02-04T08:49:35;97110.38;;;4.23;89.23
65800;BME280;52544;48.116;11.660;2023-02-04T08:52:00;97105.06;;;4.24;90.48
65800;BME280;52544;48.116;11.660;2023-02-04T08:54:27;97108.50;;;4.26;89.99
65800;BME280;52544;48.116;11.660;2023-02-04T08:56:53;97111.81;;;4.32;90.01
65800;BME280;52544;48.116;11.660;2023-02-04T08:59:18;97106.47;;;4.35;90.36
65800;BME280;52544;48.116;11.660;2023-02-04T09:01:43;97109.19;;;4.32;91.17
65800;BME280;52544;48.116;11.660;2023-02-04T09:04:13;97113.41;;;4.36;90.33
65800;BME280;52544;48.116;11.660;2023-02-04T09:06:38;97116.66;;;4.42;89.41
65800;BME280;52544;48.116;11.660;2023-02-04T09:09:04;97118.31;;;4.45;90.27
65800;BME280;52544;48.116;11.660;2023-02-04T09:11:29;97116.63;;;4.67;89.90
65800;BME280;52544;48.116;11.660;2023-02-04T09:13:55;97114.88;;;4.90;87.92
65800;BME280;52544;48.116;11.660;2023-02-04T09:16:21;97125.50;;;5.09;86.99
65800;BME280;52544;48.116;11.660;2023-02-04T09:18:47;97118.34;;;5.56;84.47
65800;BME280;52544;48.116;11.660;2023-02-04T09:21:13;97127.47;;;6.10;84.88
65800;BME280;52544;48.116;11.660;2023-02-04T09:23:38;97121.69;;;6.62;81.64
65800;BME280;52544;48.116;11.660;2023-02-04T09:26:04;97110.75;;;6.90;77.83
65800;BME280;52544;48.116;11.660;2023-02-04T09:28:31;97117.94;;;6.67;75.28
65800;BME280;52544;48.116;11.660;2023-02-04T09:30:57;97126.84;;;6.44;76.37
65800;BME280;52544;48.116;11.660;2023-02-04T09:33:22;97120.03;;;6.20;78.83
65800;BME280;52544;48.116;11.660;2023-02-04T09:35:48;97131.13;;;6.08;79.96
65800;BME280;52544;48.116;11.660;2023-02-04T09:38:14;97126.75;;;6.07;78.33
65800;BME280;52544;48.116;11.660;2023-02-04T09:40:42;97134.47;;;5.89;78.26
65800;BME280;52544;48.116;11.660;2023-02-04T09:43:12;97146.53;;;5.53;80.15
65800;BME280;52544;48.116;11.660;2023-02-04T09:45:40;97146.19;;;5.38;80.11
65800;BME280;52544;48.116;11.660;2023-02-04T09:48:06;97149.94;;;5.33;81.10
65800;BME280;52544;48.116;11.660;2023-02-04T09:50:33;97152.72;;;5.06;82.90
65800;BME280;52544;48.116;11.660;2023-02-04T09:53:04;97158.69;;;5.10;83.80
65800;BME280;52544;48.116;11.660;2023-02-04T09:55:36;97164.94;;;5.07;83.07
65800;BME280;52544;48.116;11.660;2023-02-04T09:58:07;97184.09;;;5.09;83.13
65800;BME280;52544;48.116;11.660;2023-02-04T10:00:35;97178.06;;;5.07;83.36
65800;BME280;52544;48.116;11.660;2023-02-04T10:03:01;97178.84;;;5.09;83.04
65800;BME280;52544;48.116;11.660;2023-02-04T10:05:30;97174.00;;;4.98;84.32
65800;BME280;52544;48.116;11.660;2023-02-04T10:07:57;97167.63;;;5.06;83.74
65800;BME280;52544;48.116;11.660;2023-02-04T10:10:24;97172.25;;;4.99;85.29
65800;BME280;52544;48.116;11.660;2023-02-04T10:12:56;97176.06;;;4.90;84.92
65800;BME280;52544;48.116;11.660;2023-02-04T10:15:23;97184.69;;;4.94;86.02
65800;BME280;52544;48.116;11.660;2023-02-04T10:17:55;97187.16;;;4.97;86.54
65800;BME280;52544;48.116;11.660;2023-02-04T10:20:23;97202.13;;;4.95;87.57
65800;BME280;52544;48.116;11.660;2023-02-04T10:22:52;97204.44;;;4.56;89.42
65800;BME280;52544;48.116;11.660;2023-02-04T10:25:20;97203.88;;;4.47;91.74
65800;BME280;52544;48.116;11.660;2023-02-04T10:27:57;97205.53;;;4.25;92.66
65800;BME280;52544;48.116;11.660;2023-02-04T10:30:25;97203.28;;;4.14;93.94
65800;BME280;52544;48.116;11.660;2023-02-04T10:32:52;97205.81;;;4.16;95.28
65800;BME280;52544;48.116;11.660;2023-02-04T10:35:20;97200.00;;;4.08;96.89
65800;BME280;52544;48.116;11.660;2023-02-04T10:37:46;97196.69;;;4.03;97.27
65800;BME280;52544;48.116;11.660;2023-02-04T10:40:28;97188.78;;;4.04;98.26
65800;BME280;52544;48.116;11.660;2023-02-04T10:42:54;97205.09;;;4.12;98.92
65800;BME280;52544;48.116;11.660;2023-02-04T10:45:28;97199.53;;;4.21;98.48
65800;BME280;52544;48.116;11.660;2023-02-04T10:47:55;97187.44;;;4.17;98.74
65800;BME280;52544;48.116;11.660;2023-02-04T10:50:24;97189.91;;;4.22;98.57
65800;BME280;52544;48.116;11.660;2023-02-04T10:52:59;97198.78;;;4.18;97.99
65800;BME280;52544;48.116;11.660;2023-02-04T10:55:46;97194.56;;;4.14;98.40
65800;BME280;52544;48.116;11.660;2023-02-04T10:58:26;97202.75;;;4.05;98.23
65800;BME280;52544;48.116;11.660;2023-02-04T11:00:51;97198.25;;;3.82;98.44
65800;BME280;52544;48.116;11.660;2023-02-04T11:03:25;97200.06;;;3.80;99.23
65800;BME280;52544;48.116;11.660;2023-02-04T11:05:52;97197.38;;;3.83;99.95
65800;BME280;52544;48.116;11.660;2023-02-04T11:08:26;97202.59;;;3.83;98.61
65800;BME280;52544;48.116;11.660;2023-02-04T11:10:58;97192.72;;;3.91;97.35
65800;BME280;52544;48.116;11.660;2023-02-04T11:13:26;97195.91;;;3.99;96.38
65800;BME280;52544;48.116;11.660;2023-02-04T11:18:50;97197.16;;;4.64;93.58
65800;BME280;52544;48.116;11.660;2023-02-04T11:21:45;97193.25;;;5.21;91.73
65800;BME280;52544;48.116;11.660;2023-02-04T11:26:37;97201.31;;;5.40;87.87
65800;BME280;52544;48.116;11.660;2023-02-04T11:39:28;97205.31;;;4.56;89.40
65800;BME280;52544;48.116;11.660;2023-02-04T11:41:57;97199.31;;;4.53;91.68
65800;BME280;52544;48.116;11.660;2023-02-04T11:44:23;97196.34;;;4.62;93.32
65800;BME280;52544;48.116;11.660;2023-02-04T11:46:51;97195.41;;;4.88;93.35
65800;BME280;52544;48.116;11.660;2023-02-04T11:49:20;97186.50;;;5.15;91.46
65800;BME280;52544;48.116;11.660;2023-02-04T11:51:46;97185.50;;;5.18;89.08
65800;BME280;52544;48.116;11.660;2023-02-04T11:54:13;97186.69;;;5.33;88.56
65800;BME280;52544;48.116;11.660;2023-02-04T11:56:40;97191.53;;;5.65;88.15
65800;BME280;52544;48.116;11.660;2023-02-04T11:59:08;97194.19;;;5.86;83.92
65800;BME280;52544;48.116;11.660;2023-02-04T12:01:35;97194.97;;;5.88;82.86
65800;BME280;52544;48.116;11.660;2023-02-04T12:04:03;97198.78;;;5.81;81.57
65800;BME280;52544;48.116;11.660;2023-02-04T12:06:32;97191.94;;;5.55;81.78
65800;BME280;52544;48.116;11.660;2023-02-04T12:09:25;97193.09;;;5.47;84.37
65800;BME280;52544;48.116;11.660;2023-02-04T12:11:59;97198.63;;;5.18;84.44
65800;BME280;52544;48.116;11.660;2023-02-04T12:14:34;97199.50;;;4.95;86.25
65800;BME280;52544;48.116;11.660;2023-02-04T12:16:59;97204.28;;;4.84;86.71
65800;BME280;52544;48.116;11.660;2023-02-04T12:19:26;97203.94;;;4.69;86.98
65800;BME280;52544;48.116;11.660;2023-02-04T12:21:51;97202.88;;;4.50;87.29
65800;BME280;52544;48.116;11.660;2023-02-04T12:24:17;97201.41;;;4.43;85.58
65800;BME280;52544;48.116;11.660;2023-02-04T12:26:42;97204.81;;;4.45;86.02
65800;BME280;52544;48.116;11.660;2023-02-04T12:29:08;97202.00;;;4.51;87.80
65800;BME280;52544;48.116;11.660;2023-02-04T12:31:34;97205.22;;;4.59;87.76
65800;BME280;52544;48.116;11.660;2023-02-04T12:33:59;97203.16;;;4.67;87.33
65800;BME280;52544;48.116;11.660;2023-02-04T12:36:25;97204.91;;;4.67;86.84
65800;BME280;52544;48.116;11.660;2023-02-04T12:38:54;97210.97;;;4.69;86.85
65800;BME280;52544;48.116;11.660;2023-02-04T12:41:20;97206.75;;;4.65;87.69
65800;BME280;52544;48.116;11.660;2023-02-04T12:43:46;97207.25;;;4.51;88.89
65800;BME280;52544;48.116;11.660;2023-02-04T12:46:15;97194.81;;;4.56;89.28
65800;BME280;52544;48.116;11.660;2023-02-04T12:48:40;97204.38;;;4.57;88.80
65800;BME280;52544;48.116;11.660;2023-02-04T12:51:06;97200.06;;;4.56;88.01
65800;BME280;52544;48.116;11.660;2023-02-04T12:53:32;97198.97;;;4.62;88.28
65800;BME280;52544;48.116;11.660;2023-02-04T12:55:57;97186.44;;;4.70;88.37
65800;BME280;52544;48.116;11.660;2023-02-04T12:58:23;97187.09;;;4.76;87.91
65800;BME280;52544;48.116;11.660;2023-02-04T13:00:48;97179.38;;;4.72;86.00
65800;BME280;52544;48.116;11.660;2023-02-04T13:03:13;97182.19;;;4.67;85.98
65800;BME280;52544;48.116;11.660;2023-02-04T13:05:39;97189.31;;;4.64;84.25
65800;BME280;52544;48.116;11.660;2023-02-04T13:08:04;97180.63;;;4.62;84.99